sensor_id;sensor_type;location;lat;lon;timestamp;P1;durP1;ratioP1;P2;durP2;ratioP2
49376;SDS011;35253;34.688;33.040;2023-06-22T00:00:48;9.43;;;6.70;;
49376;SDS011;35253;34.688;33.040;2023-06-22T00:03:15;9.40;;;6.68;;
49376;SDS011;35253;34.688;33.040;2023-06-22T00:05:42;13.00;;;7.22;;
49376;SDS011;35253;34.688;33.040;2023-06-22T00:08:08;11.02;;;7.78;;
49376;SDS011;35253;34.688;33.040;2023-06-22T00:10:33;9.85;;;7.93;;
49376;SDS011;35253;34.688;33.040;2023-06-22T00:13:00;15.65;;;7.93;;
49376;SDS011;35253;34.688;33.040;2023-06-22T00:15:26;12.68;;;6.88;;
49376;SDS011;35253;34.688;33.040;2023-06-22T00:17:52;11.55;;;7.28;;
49376;SDS011;35253;34.688;33.040;2023-06-22T00:20:17;10.77;;;6.10;;
49376;SDS011;35253;34.688;33.040;2023-06-22T00:22:43;12.73;;;6.57;;
49376;SDS011;35253;34.688;33.040;2023-06-22T00:25:09;9.90;;;7.20;;
49376;SDS011;35253;34.688;33.040;2023-06-22T00:27:36;11.75;;;6.43;;
49376;SDS011;35253;34.688;33.040;2023-06-22T00:30:02;8.48;;;6.78;;
49376;SDS011;35253;34.688;33.040;2023-06-22T00:32:28;7.65;;;6.20;;
49376;SDS011;35253;34.688;33.040;2023-06-22T00:34:54;11.65;;;6.68;;
49376;SDS011;35253;34.688;33.040;2023-06-22T00:37:20;9.05;;;5.85;;
49376;SDS011;35253;34.688;33.040;2023-06-22T00:39:50;8.60;;;6.80;;
49376;SDS011;35253;34.688;33.040;2023-06-22T00:42:17;11.73;;;7.53;;
49376;SDS011;35253;34.688;33.040;2023-06-22T00:44:43;8.95;;;6.32;;
49376;SDS011;35253;34.688;33.040;2023-06-22T00:47:10;4.63;;;3.80;;
49376;SDS011;35253;34.688;33.040;2023-06-22T00:49:41;4.05;;;3.67;;
49376;SDS011;35253;34.688;33.040;2023-06-22T00:52:07;4.28;;;3.85;;
49376;SDS011;35253;34.688;33.040;2023-06-22T00:54:36;4.55;;;3.70;;
49376;SDS011;35253;34.688;33.040;2023-06-22T00:57:03;3.55;;;3.22;;
49376;SDS011;35253;34.688;33.040;2023-06-22T00:59:29;4.80;;;3.55;;
49376;SDS011;35253;34.688;33.040;2023-06-22T01:01:57;5.88;;;3.83;;
49376;SDS011;35253;34.688;33.040;2023-06-22T01:04:24;4.90;;;3.45;;
49376;SDS011;35253;34.688;33.040;2023-06-22T01:12:22;6.65;;;4.47;;
49376;SDS011;35253;34.688;33.040;2023-06-22T01:14:55;4.63;;;2.95;;
49376;SDS011;35253;34.688;33.040;2023-06-22T01:17:27;5.45;;;4.13;;
49376;SDS011;35253;34.688;33.040;2023-06-22T01:19:54;3.60;;;2.92;;
49376;SDS011;35253;34.688;33.040;2023-06-22T01:22:25;3.17;;;2.63;;
49376;SDS011;35253;34.688;33.040;2023-06-22T01:30:45;3.40;;;2.87;;
49376;SDS011;35253;34.688;33.040;2023-06-22T01:33:12;6.65;;;3.35;;
49376;SDS011;35253;34.688;33.040;2023-06-22T01:35:39;3.60;;;3.08;;
49376;SDS011;35253;34.688;33.040;2023-06-22T01:38:06;5.85;;;2.83;;
49376;SDS011;35253;34.688;33.040;2023-06-22T01:40:33;3.40;;;2.78;;
49376;SDS011;35253;34.688;33.040;2023-06-22T01:43:03;4.95;;;2.90;;
49376;SDS011;35253;34.688;33.040;2023-06-22T01:45:29;5.07;;;3.58;;
49376;SDS011;35253;34.688;33.040;2023-06-22T01:47:55;6.75;;;3.00;;
49376;SDS011;35253;34.688;33.040;2023-06-22T01:50:21;5.72;;;2.97;;
49376;SDS011;35253;34.688;33.040;2023-06-22T01:52:47;5.40;;;3.90;;
49376;SDS011;35253;34.688;33.040;2023-06-22T01:55:13;7.25;;;4.28;;
49376;SDS011;35253;34.688;33.040;2023-06-22T01:57:39;5.07;;;4.22;;
49376;SDS011;35253;34.688;33.040;2023-06-22T02:00:07;5.07;;;4.55;;
49376;SDS011;35253;34.688;33.040;2023-06-22T02:02:43;11.27;;;4.63;;
49376;SDS011;35253;34.688;33.040;2023-06-22T02:05:17;7.53;;;4.10;;
49376;SDS011;35253;34.688;33.040;2023-06-22T02:07:46;12.00;;;5.25;;
49376;SDS011;35253;34.688;33.040;2023-06-22T02:10:18;12.77;;;4.13;;
49376;SDS011;35253;34.688;33.040;2023-06-22T02:12:46;7.05;;;4.45;;
49376;SDS011;35253;34.688;33.040;2023-06-22T02:15:13;9.20;;;4.05;;
49376;SDS011;35253;34.688;33.040;2023-06-22T02:17:39;4.38;;;3.92;;
49376;SDS011;35253;34.688;33.040;2023-06-22T02:20:13;8.30;;;4.43;;
49376;SDS011;35253;34.688;33.040;2023-06-22T02:25:05;7.82;;;4.75;;
49376;SDS011;35253;34.688;33.040;2023-06-22T02:27:31;10.13;;;5.50;;
49376;SDS011;35253;34.688;33.040;2023-06-22T02:29:57;8.25;;;5.22;;
49376;SDS011;35253;34.688;33.040;2023-06-22T02:32:22;7.43;;;4.10;;
49376;SDS011;35253;34.688;33.040;2023-06-22T02:34:48;7.00;;;5.43;;
49376;SDS011;35253;34.688;33.040;2023-06-22T02:37:13;10.65;;;5.00;;
49376;SDS011;35253;34.688;33.040;2023-06-22T02:39:40;8.38;;;5.30;;
49376;SDS011;35253;34.688;33.040;2023-06-22T02:42:06;14.60;;;5.63;;
49376;SDS011;35253;34.688;33.040;2023-06-22T02:44:31;11.95;;;6.18;;
49376;SDS011;35253;34.688;33.040;2023-06-22T02:46:57;8.68;;;5.57;;
49376;SDS011;35253;34.688;33.040;2023-06-22T02:49:23;11.27;;;5.30;;
49376;SDS011;35253;34.688;33.040;2023-06-22T02:51:49;5.75;;;4.78;;
49376;SDS011;35253;34.688;33.040;2023-06-22T02:54:15;6.75;;;5.03;;
49376;SDS011;35253;34.688;33.040;2023-06-22T02:56:41;5.72;;;4.63;;
49376;SDS011;35253;34.688;33.040;2023-06-22T02:59:10;6.53;;;4.20;;
49376;SDS011;35253;34.688;33.040;2023-06-22T03:01:36;13.65;;;4.70;;
49376;SDS011;35253;34.688;33.040;2023-06-22T03:04:06;12.60;;;5.73;;
49376;SDS011;35253;34.688;33.040;2023-06-22T03:06:32;9.55;;;4.80;;
49376;SDS011;35253;34.688;33.040;2023-06-22T03:09:02;10.30;;;4.97;;
49376;SDS011;35253;34.688;33.040;2023-06-22T03:11:30;6.78;;;3.75;;
49376;SDS011;35253;34.688;33.040;2023-06-22T03:13:56;7.60;;;4.47;;
49376;SDS011;35253;34.688;33.040;2023-06-22T03:16:22;9.13;;;4.40;;
49376;SDS011;35253;34.688;33.040;2023-06-22T03:18:47;6.70;;;3.90;;
49376;SDS011;35253;34.688;33.040;2023-06-22T03:21:13;4.45;;;3.33;;
49376;SDS011;35253;34.688;33.040;2023-06-22T03:23:40;13.30;;;4.57;;
49376;SDS011;35253;34.688;33.040;2023-06-22T03:26:08;12.20;;;6.32;;
49376;SDS011;35253;34.688;33.040;2023-06-22T03:28:35;7.47;;;4.22;;
49376;SDS011;35253;34.688;33.040;2023-06-22T03:31:00;6.63;;;4.10;;
49376;SDS011;35253;34.688;33.040;2023-06-22T03:33:26;6.85;;;4.32;;
49376;SDS011;35253;34.688;33.040;2023-06-22T03:35:52;6.35;;;4.07;;
49376;SDS011;35253;34.688;33.040;2023-06-22T03:38:18;8.73;;;4.10;;
49376;SDS011;35253;34.688;33.040;2023-06-22T03:40:44;5.47;;;3.72;;
49376;SDS011;35253;34.688;33.040;2023-06-22T03:43:10;4.90;;;3.47;;
49376;SDS011;35253;34.688;33.040;2023-06-22T03:45:36;5.55;;;3.80;;
49376;SDS011;35253;34.688;33.040;2023-06-22T03:48:02;8.82;;;3.72;;
49376;SDS011;35253;34.688;33.040;2023-06-22T03:50:28;14.27;;;4.88;;
49376;SDS011;35253;34.688;33.040;2023-06-22T03:52:55;9.20;;;4.00;;
49376;SDS011;35253;34.688;33.040;2023-06-22T03:55:20;7.00;;;4.57;;
49376;SDS011;35253;34.688;33.040;2023-06-22T03:57:46;8.50;;;3.50;;
49376;SDS011;35253;34.688;33.040;2023-06-22T04:00:12;11.25;;;4.28;;
49376;SDS011;35253;34.688;33.040;2023-06-22T04:02:38;10.38;;;3.70;;
49376;SDS011;35253;34.688;33.040;2023-06-22T04:05:04;5.78;;;3.00;;
49376;SDS011;35253;34.688;33.040;2023-06-22T04:07:30;7.85;;;2.95;;
49376;SDS011;35253;34.688;33.040;2023-06-22T04:09:56;14.68;;;3.92;;
49376;SDS011;35253;34.688;33.040;2023-06-22T04:12:22;13.52;;;3.13;;
49376;SDS011;35253;34.688;33.040;2023-06-22T04:14:48;21.02;;;4.38;;
49376;SDS011;35253;34.688;33.040;2023-06-22T04:17:14;18.60;;;5.22;;
49376;SDS011;35253;34.688;33.040;2023-06-22T04:19:40;23.40;;;5.63;;
49376;SDS011;35253;34.688;33.040;2023-06-22T04:22:06;8.27;;;4.50;;
49376;SDS011;35253;34.688;33.040;2023-06-22T04:24:32;11.82;;;4.47;;
49376;SDS011;35253;34.688;33.040;2023-06-22T04:26:58;12.75;;;4.25;;
49376;SDS011;35253;34.688;33.040;2023-06-22T04:29:28;11.80;;;4.27;;
49376;SDS011;35253;34.688;33.040;2023-06-22T04:31:58;8.95;;;3.70;;
49376;SDS011;35253;34.688;33.040;2023-06-22T04:34:30;13.15;;;4.85;;
49376;SDS011;35253;34.688;33.040;2023-06-22T04:36:56;9.13;;;4.68;;
49376;SDS011;35253;34.688;33.040;2023-06-22T04:39:22;9.10;;;4.20;;
49376;SDS011;35253;34.688;33.040;2023-06-22T04:41:49;16.77;;;4.25;;
49376;SDS011;35253;34.688;33.040;2023-06-22T04:44:17;16.63;;;4.97;;
49376;SDS011;35253;34.688;33.040;2023-06-22T04:46:52;14.38;;;5.95;;
49376;SDS011;35253;34.688;33.040;2023-06-22T04:49:29;5.97;;;3.33;;
49376;SDS011;35253;34.688;33.040;2023-06-22T04:52:01;6.28;;;3.55;;
49376;SDS011;35253;34.688;33.040;2023-06-22T04:54:28;11.77;;;4.60;;
49376;SDS011;35253;34.688;33.040;2023-06-22T04:56:54;11.38;;;5.45;;
49376;SDS011;35253;34.688;33.040;2023-06-22T04:59:26;17.17;;;4.85;;
49376;SDS011;35253;34.688;33.040;2023-06-22T05:01:59;14.52;;;3.95;;
49376;SDS011;35253;34.688;33.040;2023-06-22T05:04:28;10.48;;;4.32;;
49376;SDS011;35253;34.688;33.040;2023-06-22T05:06:58;9.50;;;4.03;;
49376;SDS011;35253;34.688;33.040;2023-06-22T05:09:25;5.68;;;3.75;;
49376;SDS011;35253;34.688;33.040;2023-06-22T05:11:51;6.32;;;4.28;;
49376;SDS011;35253;34.688;33.040;2023-06-22T05:14:17;11.02;;;4.88;;
49376;SDS011;35253;34.688;33.040;2023-06-22T05:16:44;9.73;;;5.20;;
49376;SDS011;35253;34.688;33.040;2023-06-22T05:19:11;19.15;;;6.32;;
49376;SDS011;35253;34.688;33.040;2023-06-22T05:21:37;10.80;;;4.90;;
49376;SDS011;35253;34.688;33.040;2023-06-22T05:24:04;11.93;;;4.57;;
49376;SDS011;35253;34.688;33.040;2023-06-22T05:26:30;7.63;;;4.10;;
49376;SDS011;35253;34.688;33.040;2023-06-22T05:28:57;12.95;;;5.32;;
49376;SDS011;35253;34.688;33.040;2023-06-22T05:31:24;9.05;;;5.15;;
49376;SDS011;35253;34.688;33.040;2023-06-22T05:33:51;15.35;;;5.38;;
49376;SDS011;35253;34.688;33.040;2023-06-22T05:36:18;12.55;;;4.70;;
49376;SDS011;35253;34.688;33.040;2023-06-22T05:38:45;10.73;;;4.95;;
49376;SDS011;35253;34.688;33.040;2023-06-22T05:41:11;11.98;;;4.40;;
49376;SDS011;35253;34.688;33.040;2023-06-22T05:43:37;11.88;;;4.47;;
49376;SDS011;35253;34.688;33.040;2023-06-22T05:46:03;8.70;;;4.05;;
49376;SDS011;35253;34.688;33.040;2023-06-22T05:48:29;6.35;;;3.65;;
49376;SDS011;35253;34.688;33.040;2023-06-22T05:50:55;10.10;;;4.10;;
49376;SDS011;35253;34.688;33.040;2023-06-22T05:53:21;22.02;;;5.35;;
49376;SDS011;35253;34.688;33.040;2023-06-22T05:55:47;29.83;;;6.47;;
49376;SDS011;35253;34.688;33.040;2023-06-22T05:58:13;8.40;;;4.22;;
49376;SDS011;35253;34.688;33.040;2023-06-22T06:00:39;8.35;;;3.60;;
49376;SDS011;35253;34.688;33.040;2023-06-22T06:03:05;5.32;;;3.58;;
49376;SDS011;35253;34.688;33.040;2023-06-22T06:05:32;6.47;;;3.25;;
49376;SDS011;35253;34.688;33.040;2023-06-22T06:07:59;5.05;;;3.30;;
49376;SDS011;35253;34.688;33.040;2023-06-22T06:10:26;21.75;;;5.50;;
49376;SDS011;35253;34.688;33.040;2023-06-22T06:12:52;43.30;;;8.23;;
49376;SDS011;35253;34.688;33.040;2023-06-22T06:15:18;31.52;;;6.63;;
49376;SDS011;35253;34.688;33.040;2023-06-22T06:17:47;47.60;;;7.90;;
49376;SDS011;35253;34.688;33.040;2023-06-22T06:20:13;10.23;;;3.75;;
49376;SDS011;35253;34.688;33.040;2023-06-22T06:22:39;13.35;;;5.57;;
49376;SDS011;35253;34.688;33.040;2023-06-22T06:25:05;75.63;;;13.07;;
49376;SDS011;35253;34.688;33.040;2023-06-22T06:27:31;15.73;;;6.45;;
49376;SDS011;35253;34.688;33.040;2023-06-22T06:29:56;17.50;;;6.30;;
49376;SDS011;35253;34.688;33.040;2023-06-22T06:32:22;12.32;;;4.40;;
49376;SDS011;35253;34.688;33.040;2023-06-22T06:34:48;9.95;;;4.20;;
49376;SDS011;35253;34.688;33.040;2023-06-22T06:37:14;12.57;;;5.47;;
49376;SDS011;35253;34.688;33.040;2023-06-22T06:39:40;18.83;;;5.93;;
49376;SDS011;35253;34.688;33.040;2023-06-22T06:42:06;7.70;;;4.50;;
49376;SDS011;35253;34.688;33.040;2023-06-22T06:44:32;8.82;;;4.78;;
49376;SDS011;35253;34.688;33.040;2023-06-22T06:46:57;11.93;;;5.13;;
49376;SDS011;35253;34.688;33.040;2023-06-22T06:49:23;5.75;;;4.10;;
49376;SDS011;35253;34.688;33.040;2023-06-22T06:51:49;9.32;;;5.50;;
49376;SDS011;35253;34.688;33.040;2023-06-22T06:54:16;13.27;;;6.32;;
49376;SDS011;35253;34.688;33.040;2023-06-22T06:56:41;8.60;;;5.07;;
49376;SDS011;35253;34.688;33.040;2023-06-22T06:59:13;13.50;;;4.68;;
49376;SDS011;35253;34.688;33.040;2023-06-22T07:01:41;12.38;;;4.97;;
49376;SDS011;35253;34.688;33.040;2023-06-22T07:04:09;11.50;;;5.03;;
49376;SDS011;35253;34.688;33.040;2023-06-22T07:06:35;6.95;;;5.93;;
49376;SDS011;35253;34.688;33.040;2023-06-22T07:09:02;8.40;;;4.50;;
49376;SDS011;35253;34.688;33.040;2023-06-22T07:11:28;9.20;;;5.05;;
49376;SDS011;35253;34.688;33.040;2023-06-22T07:13:54;6.95;;;4.88;;
49376;SDS011;35253;34.688;33.040;2023-06-22T07:16:20;11.32;;;5.85;;
49376;SDS011;35253;34.688;33.040;2023-06-22T07:18:45;5.85;;;4.85;;
49376;SDS011;35253;34.688;33.040;2023-06-22T07:21:11;6.93;;;4.85;;
49376;SDS011;35253;34.688;33.040;2023-06-22T07:23:37;6.80;;;4.05;;
49376;SDS011;35253;34.688;33.040;2023-06-22T07:26:02;8.40;;;4.20;;
49376;SDS011;35253;34.688;33.040;2023-06-22T07:28:31;8.95;;;4.50;;
49376;SDS011;35253;34.688;33.040;2023-06-22T07:31:02;3.97;;;3.65;;
49376;SDS011;35253;34.688;33.040;2023-06-22T07:33:28;6.30;;;4.07;;
49376;SDS011;35253;34.688;33.040;2023-06-22T07:35:54;6.93;;;5.13;;
49376;SDS011;35253;34.688;33.040;2023-06-22T07:38:20;6.60;;;4.65;;
49376;SDS011;35253;34.688;33.040;2023-06-22T07:40:46;11.13;;;5.28;;
49376;SDS011;35253;34.688;33.040;2023-06-22T07:43:12;8.82;;;5.25;;
49376;SDS011;35253;34.688;33.040;2023-06-22T07:45:38;8.48;;;4.03;;
49376;SDS011;35253;34.688;33.040;2023-06-22T07:48:06;6.70;;;4.53;;
49376;SDS011;35253;34.688;33.040;2023-06-22T07:50:32;9.32;;;5.72;;
49376;SDS011;35253;34.688;33.040;2023-06-22T07:52:58;7.63;;;4.53;;
49376;SDS011;35253;34.688;33.040;2023-06-22T07:55:23;10.10;;;4.15;;
49376;SDS011;35253;34.688;33.040;2023-06-22T07:57:49;8.80;;;4.25;;
49376;SDS011;35253;34.688;33.040;2023-06-22T08:00:17;14.85;;;4.93;;
49376;SDS011;35253;34.688;33.040;2023-06-22T08:02:44;10.15;;;5.18;;
49376;SDS011;35253;34.688;33.040;2023-06-22T08:05:10;8.02;;;4.78;;
49376;SDS011;35253;34.688;33.040;2023-06-22T08:07:37;4.43;;;3.92;;
49376;SDS011;35253;34.688;33.040;2023-06-22T08:10:08;10.02;;;5.05;;
49376;SDS011;35253;34.688;33.040;2023-06-22T08:12:36;10.18;;;5.35;;
49376;SDS011;35253;34.688;33.040;2023-06-22T08:15:02;6.32;;;4.82;;
49376;SDS011;35253;34.688;33.040;2023-06-22T08:17:28;9.48;;;5.75;;
49376;SDS011;35253;34.688;33.040;2023-06-22T08:19:54;7.72;;;4.90;;
49376;SDS011;35253;34.688;33.040;2023-06-22T08:22:19;11.02;;;5.57;;
49376;SDS011;35253;34.688;33.040;2023-06-22T08:24:45;12.55;;;6.43;;
49376;SDS011;35253;34.688;33.040;2023-06-22T08:27:11;7.03;;;5.35;;
49376;SDS011;35253;34.688;33.040;2023-06-22T08:29:41;6.78;;;4.43;;
49376;SDS011;35253;34.688;33.040;2023-06-22T08:32:11;9.50;;;4.55;;
49376;SDS011;35253;34.688;33.040;2023-06-22T08:34:37;8.40;;;5.38;;
49376;SDS011;35253;34.688;33.040;2023-06-22T08:37:07;7.78;;;4.60;;
49376;SDS011;35253;34.688;33.040;2023-06-22T08:39:34;7.00;;;4.78;;
49376;SDS011;35253;34.688;33.040;2023-06-22T08:42:00;7.25;;;4.18;;
49376;SDS011;35253;34.688;33.040;2023-06-22T08:44:25;8.82;;;4.25;;
49376;SDS011;35253;34.688;33.040;2023-06-22T08:46:51;9.00;;;5.00;;
49376;SDS011;35253;34.688;33.040;2023-06-22T08:49:17;6.15;;;3.63;;
49376;SDS011;35253;34.688;33.040;2023-06-22T08:51:42;5.18;;;4.25;;
49376;SDS011;35253;34.688;33.040;2023-06-22T08:54:10;8.52;;;5.30;;
49376;SDS011;35253;34.688;33.040;2023-06-22T08:56:36;9.20;;;4.80;;
49376;SDS011;35253;34.688;33.040;2023-06-22T08:59:02;6.32;;;5.32;;
49376;SDS011;35253;34.688;33.040;2023-06-22T09:01:27;6.95;;;5.03;;
49376;SDS011;35253;34.688;33.040;2023-06-22T09:03:53;7.10;;;4.82;;
49376;SDS011;35253;34.688;33.040;2023-06-22T09:06:23;6.70;;;4.47;;
49376;SDS011;35253;34.688;33.040;2023-06-22T09:08:49;7.97;;;4.78;;
49376;SDS011;35253;34.688;33.040;2023-06-22T09:11:15;5.30;;;3.13;;
49376;SDS011;35253;34.688;33.040;2023-06-22T09:13:41;5.57;;;3.75;;
49376;SDS011;35253;34.688;33.040;2023-06-22T09:16:07;4.68;;;3.70;;
49376;SDS011;35253;34.688;33.040;2023-06-22T09:18:36;4.82;;;3.42;;
49376;SDS011;35253;34.688;33.040;2023-06-22T09:21:02;6.63;;;4.22;;
49376;SDS011;35253;34.688;33.040;2023-06-22T09:23:27;5.53;;;3.30;;
49376;SDS011;35253;34.688;33.040;2023-06-22T09:25:54;6.13;;;3.80;;
49376;SDS011;35253;34.688;33.040;2023-06-22T09:28:19;6.20;;;3.67;;
49376;SDS011;35253;34.688;33.040;2023-06-22T09:30:45;5.35;;;3.33;;
49376;SDS011;35253;34.688;33.040;2023-06-22T09:33:11;5.75;;;3.95;;
49376;SDS011;35253;34.688;33.040;2023-06-22T09:35:36;7.03;;;3.58;;
49376;SDS011;35253;34.688;33.040;2023-06-22T09:38:02;5.32;;;3.78;;
49376;SDS011;35253;34.688;33.040;2023-06-22T09:40:28;4.18;;;3.53;;
49376;SDS011;35253;34.688;33.040;2023-06-22T09:42:54;6.78;;;3.50;;
49376;SDS011;35253;34.688;33.040;2023-06-22T09:45:19;4.63;;;3.45;;
49376;SDS011;35253;34.688;33.040;2023-06-22T09:47:45;3.00;;;2.53;;
49376;SDS011;35253;34.688;33.040;2023-06-22T09:50:11;9.60;;;6.13;;
49376;SDS011;35253;34.688;33.040;2023-06-22T09:52:37;4.53;;;3.33;;
49376;SDS011;35253;34.688;33.040;2023-06-22T09:55:03;5.38;;;2.65;;
49376;SDS011;35253;34.688;33.040;2023-06-22T09:57:29;3.40;;;2.95;;
49376;SDS011;35253;34.688;33.040;2023-06-22T09:59:55;5.07;;;3.78;;
49376;SDS011;35253;34.688;33.040;2023-06-22T10:02:21;5.88;;;3.22;;
49376;SDS011;35253;34.688;33.040;2023-06-22T10:04:47;6.43;;;3.72;;
49376;SDS011;35253;34.688;33.040;2023-06-22T10:07:13;9.23;;;4.57;;
49376;SDS011;35253;34.688;33.040;2023-06-22T10:09:39;3.53;;;2.42;;
49376;SDS011;35253;34.688;33.040;2023-06-22T10:12:05;4.88;;;3.08;;
49376;SDS011;35253;34.688;33.040;2023-06-22T10:14:31;8.43;;;4.50;;
49376;SDS011;35253;34.688;33.040;2023-06-22T10:16:56;5.35;;;3.95;;
49376;SDS011;35253;34.688;33.040;2023-06-22T10:19:22;4.22;;;2.78;;
49376;SDS011;35253;34.688;33.040;2023-06-22T10:21:48;5.65;;;3.22;;
49376;SDS011;35253;34.688;33.040;2023-06-22T10:24:14;3.70;;;2.80;;
49376;SDS011;35253;34.688;33.040;2023-06-22T10:26:39;5.70;;;2.80;;
49376;SDS011;35253;34.688;33.040;2023-06-22T10:29:05;8.30;;;3.03;;
49376;SDS011;35253;34.688;33.040;2023-06-22T10:31:31;8.48;;;3.50;;
49376;SDS011;35253;34.688;33.040;2023-06-22T10:33:56;2.95;;;2.33;;
49376;SDS011;35253;34.688;33.040;2023-06-22T10:36:22;5.35;;;3.90;;
49376;SDS011;35253;34.688;33.040;2023-06-22T10:38:48;6.47;;;2.47;;
49376;SDS011;35253;34.688;33.040;2023-06-22T10:41:14;4.28;;;3.83;;
49376;SDS011;35253;34.688;33.040;2023-06-22T10:43:41;6.45;;;3.42;;
49376;SDS011;35253;34.688;33.040;2023-06-22T10:46:06;7.13;;;2.53;;
49376;SDS011;35253;34.688;33.040;2023-06-22T10:48:33;4.43;;;2.67;;
49376;SDS011;35253;34.688;33.040;2023-06-22T10:50:59;6.38;;;2.72;;
49376;SDS011;35253;34.688;33.040;2023-06-22T10:53:24;4.18;;;2.28;;
49376;SDS011;35253;34.688;33.040;2023-06-22T10:55:50;2.60;;;2.33;;
49376;SDS011;35253;34.688;33.040;2023-06-22T10:58:20;6.85;;;4.43;;
49376;SDS011;35253;34.688;33.040;2023-06-22T11:00:46;5.65;;;3.10;;
49376;SDS011;35253;34.688;33.040;2023-06-22T11:03:11;7.38;;;3.28;;
49376;SDS011;35253;34.688;33.040;2023-06-22T11:05:39;6.53;;;2.97;;
49376;SDS011;35253;34.688;33.040;2023-06-22T11:08:05;3.05;;;2.72;;
49376;SDS011;35253;34.688;33.040;2023-06-22T11:10:30;2.70;;;2.50;;
49376;SDS011;35253;34.688;33.040;2023-06-22T11:12:56;4.95;;;3.00;;
49376;SDS011;35253;34.688;33.040;2023-06-22T11:15:23;3.25;;;2.53;;
49376;SDS011;35253;34.688;33.040;2023-06-22T11:17:49;8.20;;;3.40;;
49376;SDS011;35253;34.688;33.040;2023-06-22T11:20:15;3.30;;;2.75;;
49376;SDS011;35253;34.688;33.040;2023-06-22T11:22:41;6.43;;;2.67;;
49376;SDS011;35253;34.688;33.040;2023-06-22T11:25:07;7.97;;;4.22;;
49376;SDS011;35253;34.688;33.040;2023-06-22T11:27:33;3.78;;;2.33;;
49376;SDS011;35253;34.688;33.040;2023-06-22T11:29:59;4.22;;;2.80;;
49376;SDS011;35253;34.688;33.040;2023-06-22T11:32:26;3.95;;;2.67;;
49376;SDS011;35253;34.688;33.040;2023-06-22T11:34:51;6.15;;;3.00;;
49376;SDS011;35253;34.688;33.040;2023-06-22T11:37:17;9.02;;;3.20;;
49376;SDS011;35253;34.688;33.040;2023-06-22T11:39:43;5.88;;;2.35;;
49376;SDS011;35253;34.688;33.040;2023-06-22T11:42:09;3.78;;;1.80;;
49376;SDS011;35253;34.688;33.040;2023-06-22T11:44:35;5.15;;;2.53;;
49376;SDS011;35253;34.688;33.040;2023-06-22T11:47:01;7.20;;;2.45;;
49376;SDS011;35253;34.688;33.040;2023-06-22T11:49:29;5.25;;;2.55;;
49376;SDS011;35253;34.688;33.040;2023-06-22T11:51:56;3.67;;;2.38;;
49376;SDS011;35253;34.688;33.040;2023-06-22T11:54:21;3.22;;;2.85;;
49376;SDS011;35253;34.688;33.040;2023-06-22T11:56:47;5.93;;;2.13;;
49376;SDS011;35253;34.688;33.040;2023-06-22T11:59:13;7.95;;;2.60;;
49376;SDS011;35253;34.688;33.040;2023-06-22T12:01:38;3.75;;;2.03;;
49376;SDS011;35253;34.688;33.040;2023-06-22T12:04:04;5.85;;;2.28;;
49376;SDS011;35253;34.688;33.040;2023-06-22T12:06:35;3.45;;;2.67;;
49376;SDS011;35253;34.688;33.040;2023-06-22T12:09:03;2.95;;;2.35;;
49376;SDS011;35253;34.688;33.040;2023-06-22T12:11:30;4.90;;;2.67;;
49376;SDS011;35253;34.688;33.040;2023-06-22T12:13:56;5.03;;;3.40;;
49376;SDS011;35253;34.688;33.040;2023-06-22T12:16:22;4.22;;;2.78;;
49376;SDS011;35253;34.688;33.040;2023-06-22T12:18:49;4.72;;;2.40;;
49376;SDS011;35253;34.688;33.040;2023-06-22T12:21:15;4.25;;;2.72;;
49376;SDS011;35253;34.688;33.040;2023-06-22T12:23:41;3.13;;;2.15;;
49376;SDS011;35253;34.688;33.040;2023-06-22T12:26:06;2.78;;;2.58;;
49376;SDS011;35253;34.688;33.040;2023-06-22T12:28:32;4.60;;;3.13;;
49376;SDS011;35253;34.688;33.040;2023-06-22T12:30:57;3.00;;;2.60;;
49376;SDS011;35253;34.688;33.040;2023-06-22T12:33:23;4.50;;;2.25;;
49376;SDS011;35253;34.688;33.040;2023-06-22T12:35:49;6.82;;;3.03;;
49376;SDS011;35253;34.688;33.040;2023-06-22T12:38:14;4.90;;;3.13;;
49376;SDS011;35253;34.688;33.040;2023-06-22T12:40:40;4.68;;;3.20;;
49376;SDS011;35253;34.688;33.040;2023-06-22T12:43:06;3.83;;;2.20;;
49376;SDS011;35253;34.688;33.040;2023-06-22T12:45:32;3.30;;;2.92;;
49376;SDS011;35253;34.688;33.040;2023-06-22T12:47:59;5.85;;;2.55;;
49376;SDS011;35253;34.688;33.040;2023-06-22T12:50:26;6.25;;;3.35;;
49376;SDS011;35253;34.688;33.040;2023-06-22T12:52:51;2.67;;;2.33;;
49376;SDS011;35253;34.688;33.040;2023-06-22T12:55:17;5.65;;;2.47;;
49376;SDS011;35253;34.688;33.040;2023-06-22T12:57:43;3.58;;;2.33;;
49376;SDS011;35253;34.688;33.040;2023-06-22T13:00:09;4.43;;;2.45;;
49376;SDS011;35253;34.688;33.040;2023-06-22T13:02:35;6.25;;;3.30;;
49376;SDS011;35253;34.688;33.040;2023-06-22T13:05:02;3.00;;;2.70;;
49376;SDS011;35253;34.688;33.040;2023-06-22T13:07:30;3.33;;;1.95;;
49376;SDS011;35253;34.688;33.040;2023-06-22T13:09:55;4.63;;;1.92;;
49376;SDS011;35253;34.688;33.040;2023-06-22T13:12:21;6.50;;;4.10;;
49376;SDS011;35253;34.688;33.040;2023-06-22T13:14:47;2.95;;;2.10;;
49376;SDS011;35253;34.688;33.040;2023-06-22T13:17:14;3.80;;;2.85;;
49376;SDS011;35253;34.688;33.040;2023-06-22T13:19:39;3.58;;;2.05;;
49376;SDS011;35253;34.688;33.040;2023-06-22T13:22:24;4.55;;;3.30;;
49376;SDS011;35253;34.688;33.040;2023-06-22T13:24:50;5.07;;;2.55;;
49376;SDS011;35253;34.688;33.040;2023-06-22T13:27:16;5.05;;;2.50;;
49376;SDS011;35253;34.688;33.040;2023-06-22T13:29:42;3.53;;;3.22;;
49376;SDS011;35253;34.688;33.040;2023-06-22T13:32:07;4.70;;;3.33;;
49376;SDS011;35253;34.688;33.040;2023-06-22T13:34:33;3.13;;;2.53;;
49376;SDS011;35253;34.688;33.040;2023-06-22T13:36:59;6.20;;;4.10;;
49376;SDS011;35253;34.688;33.040;2023-06-22T13:39:24;6.95;;;5.05;;
49376;SDS011;35253;34.688;33.040;2023-06-22T13:41:50;4.10;;;2.83;;
49376;SDS011;35253;34.688;33.040;2023-06-22T13:44:16;6.30;;;3.47;;
49376;SDS011;35253;34.688;33.040;2023-06-22T13:46:42;8.88;;;2.45;;
49376;SDS011;35253;34.688;33.040;2023-06-22T13:49:07;2.20;;;1.98;;
49376;SDS011;35253;34.688;33.040;2023-06-22T13:51:33;2.58;;;2.22;;
49376;SDS011;35253;34.688;33.040;2023-06-22T13:53:59;2.92;;;2.20;;
49376;SDS011;35253;34.688;33.040;2023-06-22T13:56:24;3.20;;;2.17;;
49376;SDS011;35253;34.688;33.040;2023-06-22T13:58:50;3.92;;;2.83;;
49376;SDS011;35253;34.688;33.040;2023-06-22T14:01:16;3.60;;;2.88;;
49376;SDS011;35253;34.688;33.040;2023-06-22T14:03:41;3.15;;;2.42;;
49376;SDS011;35253;34.688;33.040;2023-06-22T14:06:09;2.55;;;2.25;;
49376;SDS011;35253;34.688;33.040;2023-06-22T14:08:37;6.43;;;3.05;;
49376;SDS011;35253;34.688;33.040;2023-06-22T14:11:03;5.72;;;1.90;;
49376;SDS011;35253;34.688;33.040;2023-06-22T14:13:28;4.18;;;3.13;;
49376;SDS011;35253;34.688;33.040;2023-06-22T14:15:54;3.42;;;3.03;;
49376;SDS011;35253;34.688;33.040;2023-06-22T14:18:20;3.08;;;2.05;;
49376;SDS011;35253;34.688;33.040;2023-06-22T14:20:47;3.65;;;2.40;;
49376;SDS011;35253;34.688;33.040;2023-06-22T14:23:14;5.55;;;2.80;;
49376;SDS011;35253;34.688;33.040;2023-06-22T14:25:40;4.03;;;3.30;;
49376;SDS011;35253;34.688;33.040;2023-06-22T14:28:06;3.28;;;2.60;;
49376;SDS011;35253;34.688;33.040;2023-06-22T14:30:31;3.33;;;2.85;;
49376;SDS011;35253;34.688;33.040;2023-06-22T14:32:57;4.35;;;3.05;;
49376;SDS011;35253;34.688;33.040;2023-06-22T14:35:23;4.45;;;2.67;;
49376;SDS011;35253;34.688;33.040;2023-06-22T14:37:49;3.08;;;2.45;;
49376;SDS011;35253;34.688;33.040;2023-06-22T14:40:15;8.45;;;3.72;;